Time;durP1;ratioP1;P1;durP2;ratioP2;P2;SDS_P1;SDS_P2;PMS_P1;PMS_P2;Temp;Humidity;BMP_temperature;BMP_pressure;BME280_temperature;BME280_humidity;BME280_pressure;Samples;Min_cycle;Max_cycle;Signal;HPM_P1;HPM_P2
2021/06/04 00:00:21;;;;;;;4.33;4.07;;;;;;;14.19;92.00;96004.06;5032240;28;20265;-65
2021/06/04 00:02:50;;;;;;;6.23;4.87;;;;;;;14.22;91.93;96000.16;5027746;28;20246;-67
2021/06/04 00:05:21;;;;;;;4.57;4.37;;;;;;;14.23;91.86;96007.13;5033816;28;20227;-66
2021/06/04 00:07:49;;;;;;;5.17;4.80;;;;;;;14.24;91.86;96004.25;5032705;28;20255;-66
2021/06/04 00:10:22;;;;;;;4.47;4.10;;;;;;;14.23;92.03;96004.47;5043070;28;20223;-66
2021/06/04 00:12:50;;;;;;;6.03;4.97;;;;;;;14.13;92.78;96010.13;5028181;28;20220;-66
2021/06/04 00:15:24;;;;;;;7.07;6.67;;;;;;;14.09;92.91;96005.44;5026848;28;20219;-67
2021/06/04 00:17:52;;;;;;;5.00;4.80;;;;;;;14.08;92.96;96009.06;5029200;28;20227;-66
2021/06/04 00:20:23;;;;;;;6.00;5.57;;;;;;;14.09;92.94;96008.09;5045577;28;20292;-65
2021/06/04 00:22:51;;;;;;;4.63;4.37;;;;;;;14.14;93.29;96011.78;5041779;28;20305;-66
2021/06/04 00:25:20;;;;;;;4.00;3.80;;;;;;;14.20;92.90;96007.53;5045822;28;20649;-66
2021/06/04 00:27:47;;;;;;;4.83;4.60;;;;;;;14.24;92.52;96011.41;5045594;28;20322;-66
2021/06/04 00:30:16;;;;;;;4.63;4.43;;;;;;;14.25;92.39;96010.38;5026297;28;20954;-66
2021/06/04 00:32:45;;;;;;;4.70;4.50;;;;;;;14.27;92.49;96003.06;5025949;28;20232;-66
2021/06/04 00:35:13;;;;;;;4.43;4.13;;;;;;;14.29;92.71;96001.03;5027221;28;20254;-66
2021/06/04 00:37:41;;;;;;;3.93;3.73;;;;;;;14.33;92.70;95996.94;5028257;28;20734;-66
2021/06/04 00:40:12;;;;;;;4.70;4.33;;;;;;;14.38;92.62;95999.84;5045054;28;20215;-66
2021/06/04 00:42:40;;;;;;;4.80;4.60;;;;;;;14.44;92.52;95998.19;5042314;28;20241;-66
2021/06/04 00:45:12;;;;;;;4.90;4.60;;;;;;;14.47;92.55;95992.53;5034441;28;20227;-66
2021/06/04 00:47:44;;;;;;;4.27;4.00;;;;;;;14.52;92.88;95996.22;5041333;28;20288;-66
2021/06/04 00:50:17;;;;;;;5.83;5.53;;;;;;;14.57;92.76;95995.63;5040900;28;20258;-65
2021/06/04 00:52:44;;;;;;;6.03;5.67;;;;;;;14.65;92.50;96002.59;5034445;28;20246;-66
2021/06/04 00:55:16;;;;;;;6.37;5.87;;;;;;;14.75;91.34;96000.38;5044543;28;20246;-66
2021/06/04 00:57:44;;;;;;;5.90;5.60;;;;;;;14.85;89.54;95992.81;5042409;28;20216;-66
2021/06/04 01:00:18;;;;;;;6.53;6.03;;;;;;;14.91;88.50;95994.69;5035980;28;20272;-66
2021/06/04 01:02:48;;;;;;;5.17;4.87;;;;;;;14.93;87.72;95997.94;5038992;28;20284;-66
2021/06/04 01:05:17;;;;;;;4.67;4.33;;;;;;;14.94;88.10;95996.94;5044143;28;20246;-66
2021/06/04 01:08:04;;;;;;;5.07;4.80;;;;;;;14.93;89.15;96003.28;5038800;28;20589;-67
2021/06/04 01:10:40;;;;;;;4.73;4.43;;;;;;;14.87;90.31;95998.75;5044087;28;20219;-66
2021/06/04 01:13:15;;;;;;;6.00;5.50;;;;;;;14.72;91.52;96000.75;5024149;28;20251;-66
2021/06/04 01:16:03;;;;;;;5.07;4.77;;;;;;;14.68;91.55;96012.81;5025059;28;20747;-66
2021/06/04 01:18:54;;;;;;;5.43;5.10;;;;;;;14.63;91.61;96017.91;5036236;28;20223;-66
2021/06/04 01:21:34;;;;;;;4.60;4.40;;;;;;;14.58;92.15;96020.34;5039204;28;20233;-66
2021/06/04 01:24:10;;;;;;;6.03;5.60;;;;;;;14.52;92.35;96012.16;5027212;28;20229;-66
2021/06/04 01:26:44;;;;;;;4.00;3.80;;;;;;;14.51;92.43;96015.00;5040506;28;20280;-66
2021/06/04 01:29:16;;;;;;;5.10;4.80;;;;;;;14.50;92.64;96010.72;5039656;28;20242;-66
2021/06/04 01:31:49;;;;;;;5.33;5.03;;;;;;;14.47;92.43;96013.78;5045081;28;20631;-67
2021/06/04 01:34:21;;;;;;;5.77;5.47;;;;;;;14.46;92.58;96018.28;5043405;28;20233;-65
2021/06/04 01:36:57;;;;;;;5.07;4.77;;;;;;;14.50;92.90;96014.19;5033059;28;20284;-66
2021/06/04 01:39:33;;;;;;;5.67;5.43;;;;;;;14.55;92.58;96010.97;5042490;28;20309;-66
2021/06/04 01:42:07;;;;;;;5.77;5.43;;;;;;;14.53;92.50;96007.66;5042798;28;20282;-67
2021/06/04 01:44:40;;;;;;;6.73;6.13;;;;;;;14.49;92.47;96009.91;5045038;28;20638;-67
2021/06/04 01:47:13;;;;;;;5.07;4.73;;;;;;;14.44;92.67;96009.63;5028549;28;20655;-66
2021/06/04 01:49:47;;;;;;;6.43;5.97;;;;;;;14.42;92.88;96005.56;5038703;28;20219;-65
2021/06/04 01:52:20;;;;;;;6.17;5.70;;;;;;;14.37;93.10;96000.84;5029644;28;20465;-66
2021/06/04 01:54:52;;;;;;;5.03;4.73;;;;;;;14.39;92.98;96012.09;5025931;28;20224;-66
2021/06/04 01:57:25;;;;;;;4.27;4.00;;;;;;;14.43;92.57;96008.00;5040359;28;20227;-66
2021/06/04 01:59:56;;;;;;;4.63;4.23;;;;;;;14.46;92.76;96012.97;5033007;28;20319;-66
2021/06/04 02:02:44;;;;;;;5.90;5.60;;;;;;;14.51;92.37;96021.13;5032307;28;20231;-66
2021/06/04 02:05:27;;;;;;;6.30;5.83;;;;;;;14.48;92.74;96021.53;5043191;28;20229;-66
2021/06/04 02:07:58;;;;;;;5.73;5.43;;;;;;;14.44;93.18;96020.25;5036904;28;20483;-66
2021/06/04 02:10:30;;;;;;;4.60;4.30;;;;;;;14.48;93.15;96010.09;5036564;28;20501;-66
2021/06/04 02:13:03;;;;;;;5.87;5.57;;;;;;;14.45;93.50;96013.19;5026896;28;20254;-66
2021/06/04 02:15:41;;;;;;;5.50;5.20;;;;;;;14.43;93.30;96008.00;5043152;28;20242;-67
2021/06/04 02:18:23;;;;;;;5.43;5.13;;;;;;;14.41;93.42;96004.72;5033080;28;20223;-66
2021/06/04 02:21:07;;;;;;;6.30;5.73;;;;;;;14.44;93.48;96004.31;5034035;28;20253;-67
2021/06/04 02:23:45;;;;;;;5.80;5.43;;;;;;;14.46;93.82;96005.00;5026082;28;20223;-66
2021/06/04 02:26:20;;;;;;;4.30;4.10;;;;;;;14.49;93.77;96001.94;5042935;28;20327;-66
2021/06/04 02:28:55;;;;;;;5.67;5.37;;;;;;;14.51;93.85;96002.56;5036878;28;20226;-66
2021/06/04 02:31:28;;;;;;;5.00;4.80;;;;;;;14.52;93.78;96009.50;5041747;28;20306;-66
2021/06/04 02:34:03;;;;;;;4.80;4.50;;;;;;;14.52;93.70;96006.03;5024459;28;20307;-66
2021/06/04 02:36:35;;;;;;;5.37;5.07;;;;;;;14.53;93.67;96012.97;5032118;28;20230;-65
2021/06/04 02:39:07;;;;;;;6.03;5.57;;;;;;;14.56;93.53;96009.13;5048476;28;20856;-66
2021/06/04 02:41:38;;;;;;;5.17;4.87;;;;;;;14.52;93.23;96014.81;5037476;28;20239;-66
2021/06/04 02:44:11;;;;;;;7.50;6.90;;;;;;;14.46;93.24;96010.31;5032487;28;20689;-66
2021/06/04 02:46:44;;;;;;;6.87;6.40;;;;;;;14.43;93.28;96018.63;5032251;28;20310;-66
2021/06/04 02:49:15;;;;;;;6.07;5.77;;;;;;;14.43;93.37;96013.31;5022613;28;20226;-66
2021/06/04 02:51:55;;;;;;;7.60;7.13;;;;;;;14.38;93.51;96010.44;5040371;28;20446;-67
2021/06/04 02:54:27;;;;;;;5.73;5.37;;;;;;;14.39;93.58;96012.09;5036567;28;20298;-67
2021/06/04 02:56:57;;;;;;;5.33;5.03;;;;;;;14.41;93.82;96009.22;5042544;28;20708;-64
2021/06/04 02:59:30;;;;;;;4.90;4.57;;;;;;;14.42;93.93;96011.69;5042660;28;20700;-64
2021/06/04 03:02:03;;;;;;;6.37;6.07;;;;;;;14.42;94.10;96011.69;5029357;28;20229;-64
2021/06/04 03:04:38;;;;;;;6.07;5.67;;;;;;;14.42;94.09;96010.88;5041807;28;20249;-64
2021/06/04 03:07:08;;;;;;;5.47;5.17;;;;;;;14.42;94.18;96009.03;5038913;28;20272;-63
2021/06/04 03:09:40;;;;;;;6.73;6.33;;;;;;;14.40;94.17;96012.91;5032537;28;20408;-64
2021/06/04 03:12:15;;;;;;;6.53;6.23;;;;;;;14.39;94.12;96008.63;5042339;28;20309;-63
2021/06/04 03:14:46;;;;;;;5.93;5.43;;;;;;;14.44;94.24;96012.28;5041823;28;20236;-63
2021/06/04 03:17:16;;;;;;;6.17;5.80;;;;;;;14.45;94.20;96016.66;5043046;28;20635;-64
2021/06/04 03:19:43;;;;;;;5.13;4.83;;;;;;;14.45;94.29;96011.34;5022582;28;20303;-64
2021/06/04 03:22:15;;;;;;;5.43;5.13;;;;;;;14.47;94.40;96011.94;5021408;28;20215;-64
2021/06/04 03:24:44;;;;;;;5.47;5.07;;;;;;;14.49;94.45;96015.22;5029040;28;20306;-65
2021/06/04 03:27:18;;;;;;;6.50;6.10;;;;;;;14.53;94.39;96020.94;5042285;28;20226;-65
2021/06/04 03:29:52;;;;;;;6.13;5.30;;;;;;;14.54;94.13;96019.09;5041015;28;20662;-65
2021/06/04 03:32:20;;;;;;;6.73;6.33;;;;;;;14.56;94.12;96023.22;5023949;28;20269;-64
2021/06/04 03:34:49;;;;;;;6.87;6.57;;;;;;;14.56;94.21;96023.22;5022514;28;20239;-64
2021/06/04 03:37:21;;;;;;;5.73;5.43;;;;;;;14.60;94.12;96028.94;5023307;28;20293;-63
2021/06/04 03:39:48;;;;;;;7.20;6.80;;;;;;;14.61;94.38;96027.91;5027850;28;20241;-63
2021/06/04 03:42:21;;;;;;;11.90;6.47;;;;;;;14.65;94.21;96037.13;5042543;28;20215;-64
2021/06/04 03:44:51;;;;;;;6.20;5.90;;;;;;;14.67;94.00;96040.41;5046844;28;20227;-63
2021/06/04 03:47:19;;;;;;;7.10;6.67;;;;;;;14.67;93.58;96038.56;5034216;28;20227;-64
2021/06/04 03:49:47;;;;;;;7.50;7.00;;;;;;;14.65;93.36;96039.78;5041170;28;20286;-64
2021/06/04 03:52:23;;;;;;;8.13;7.57;;;;;;;14.63;93.50;96036.50;5041437;28;20285;-63
2021/06/04 03:54:54;;;;;;;6.17;5.87;;;;;;;14.65;93.52;96037.94;5045150;28;20228;-64
2021/06/04 03:57:25;;;;;;;7.10;6.50;;;;;;;14.67;93.69;96032.44;5046828;28;20308;-64
2021/06/04 03:59:54;;;;;;;6.10;5.80;;;;;;;14.70;93.94;96034.69;5028519;28;20306;-64
2021/06/04 04:02:26;;;;;;;5.47;5.17;;;;;;;14.72;93.86;96032.63;5040225;28;20219;-64
2021/06/04 04:04:57;;;;;;;5.97;5.67;;;;;;;14.74;93.56;96041.25;5046269;28;20230;-64
2021/06/04 04:07:26;;;;;;;6.10;5.70;;;;;;;14.79;93.22;96039.59;5041140;28;20262;-64
2021/06/04 04:09:53;;;;;;;7.33;6.93;;;;;;;14.83;92.98;96032.06;5032004;28;20646;-64
2021/06/04 04:12:20;;;;;;;9.47;6.90;;;;;;;14.84;92.67;96033.72;5046592;28;20739;-64
2021/06/04 04:14:48;;;;;;;6.67;6.33;;;;;;;14.84;92.87;96031.06;5044801;28;20234;-64
2021/06/04 04:17:17;;;;;;;5.80;5.47;;;;;;;14.91;93.20;96041.69;5026171;28;20227;-64
2021/06/04 04:19:44;;;;;;;7.13;6.73;;;;;;;14.96;93.42;96042.72;5027911;28;20311;-64
2021/06/04 04:22:12;;;;;;;6.30;5.80;;;;;;;14.98;93.32;96045.97;5033397;28;20709;-64
2021/06/04 04:24:41;;;;;;;6.20;5.80;;;;;;;14.99;93.32;96044.97;5045566;28;20777;-64
2021/06/04 04:27:10;;;;;;;5.83;5.53;;;;;;;15.04;93.27;96047.84;5045260;28;20310;-64
2021/06/04 04:29:37;;;;;;;6.60;6.27;;;;;;;15.06;93.07;96048.47;5042674;28;20223;-64
2021/06/04 04:32:12;;;;;;;6.53;6.23;;;;;;;15.09;93.00;96049.91;5036094;28;20247;-64
2021/06/04 04:34:42;;;;;;;6.93;6.53;;;;;;;15.04;93.04;96044.38;5025440;28;20300;-64
2021/06/04 04:37:09;;;;;;;6.73;6.30;;;;;;;15.08;93.04;96049.06;5026320;28;20273;-64
2021/06/04 04:39:40;;;;;;;6.10;5.80;;;;;;;15.14;93.03;96046.63;5034778;28;20258;-64
2021/06/04 04:42:09;;;;;;;6.07;5.77;;;;;;;15.16;93.23;96049.91;5041822;28;20243;-65
2021/06/04 04:44:38;;;;;;;6.33;5.93;;;;;;;15.20;93.49;96040.50;5028473;28;20663;-65
2021/06/04 04:47:09;;;;;;;6.47;5.97;;;;;;;15.21;93.58;96042.16;5026104;28;20305;-63
2021/06/04 04:49:37;;;;;;;6.43;5.90;;;;;;;15.22;93.13;96044.59;5020413;28;20697;-64
2021/06/04 04:52:11;;;;;;;7.40;7.00;;;;;;;15.25;92.47;96038.06;5044307;28;20226;-65
2021/06/04 04:54:41;;;;;;;6.70;6.33;;;;;;;15.26;91.82;96045.00;5020992;28;20688;-64
2021/06/04 04:57:09;;;;;;;6.60;6.10;;;;;;;15.28;91.67;96045.63;5025917;28;20705;-64
2021/06/04 04:59:37;;;;;;;5.63;5.30;;;;;;;15.27;91.76;96051.94;5023846;28;20322;-64
2021/06/04 05:02:05;;;;;;;7.07;6.60;;;;;;;15.25;92.01;96048.69;5034890;28;20255;-64
2021/06/04 05:04:34;;;;;;;6.40;6.00;;;;;;;15.24;92.25;96050.53;5025307;28;20634;-64
2021/06/04 05:07:02;;;;;;;8.00;7.60;;;;;;;15.30;92.24;96048.91;5032036;28;20301;-64
2021/06/04 05:09:31;;;;;;;7.70;7.13;;;;;;;15.36;92.23;96050.72;5040014;28;20235;-62
2021/06/04 05:11:58;;;;;;;7.10;6.60;;;;;;;15.38;91.52;96056.69;5045271;28;20301;-63
2021/06/04 05:14:26;;;;;;;6.33;5.97;;;;;;;15.39;91.52;96060.16;5027892;28;20668;-64
2021/06/04 05:16:53;;;;;;;7.40;7.00;;;;;;;15.39;91.55;96058.31;5026301;28;20322;-65
2021/06/04 05:19:21;;;;;;;6.53;6.13;;;;;;;15.46;91.86;96058.34;5044456;28;20230;-63
2021/06/04 05:21:48;;;;;;;6.63;6.33;;;;;;;15.51;91.88;96062.00;5044890;28;20240;-65
2021/06/04 05:24:16;;;;;;;11.13;7.30;;;;;;;15.57;91.63;96063.84;5024776;28;20307;-65
2021/06/04 05:26:45;;;;;;;6.63;6.23;;;;;;;15.70;91.83;96071.03;5025479;28;20789;-64
2021/06/04 05:29:12;;;;;;;6.33;6.03;;;;;;;15.80;91.68;96073.28;5029950;28;20341;-64
2021/06/04 05:31:40;;;;;;;5.30;5.00;;;;;;;15.91;91.48;96080.66;5044512;28;20237;-64
2021/06/04 05:34:09;;;;;;;6.43;6.13;;;;;;;16.03;91.48;96073.66;5040896;28;20251;-65
2021/06/04 05:36:39;;;;;;;6.33;6.03;;;;;;;16.12;91.20;96077.75;5025558;28;20251;-65
2021/06/04 05:39:10;;;;;;;6.23;5.73;;;;;;;16.21;90.58;96081.81;5024189;28;20239;-65
2021/06/04 05:41:40;;;;;;;6.03;5.73;;;;;;;16.32;90.08;96084.88;5043239;28;20310;-65
2021/06/04 05:44:18;;;;;;;7.47;6.87;;;;;;;16.37;89.42;96079.75;5044496;28;20218;-65
2021/06/04 05:46:48;;;;;;;5.77;5.47;;;;;;;16.48;89.17;96087.06;5045154;28;20254;-65
2021/06/04 05:49:16;;;;;;;5.77;5.47;;;;;;;16.60;88.81;96089.91;5032837;28;20578;-65
2021/06/04 05:51:44;;;;;;;5.87;5.53;;;;;;;16.64;88.33;96085.75;5034083;28;20255;-65
2021/06/04 05:54:13;;;;;;;6.93;6.43;;;;;;;16.65;88.07;96082.91;5026261;28;20247;-65
2021/06/04 05:56:40;;;;;;;5.13;4.90;;;;;;;16.76;87.27;96087.59;5025141;28;20256;-65
2021/06/04 05:59:07;;;;;;;5.20;4.90;;;;;;;16.92;87.48;96088.16;5044584;28;20306;-65
2021/06/04 06:01:37;;;;;;;7.23;5.90;;;;;;;17.03;86.48;96090.97;5037367;28;20331;-64
2021/06/04 06:04:05;;;;;;;6.17;5.53;;;;;;;17.15;85.54;96092.94;5035654;28;20234;-65
2021/06/04 06:06:33;;;;;;;6.17;5.87;;;;;;;17.22;85.33;96089.22;5044161;28;20233;-63
2021/06/04 06:09:00;;;;;;;5.20;5.00;;;;;;;17.38;85.09;96087.88;5033588;28;20313;-65
2021/06/04 06:11:29;;;;;;;5.03;4.63;;;;;;;17.50;84.37;96096.00;5036924;28;20310;-64
2021/06/04 06:13:59;;;;;;;5.17;4.97;;;;;;;17.63;83.58;96090.56;5034247;28;20370;-63
2021/06/04 06:16:29;;;;;;;9.20;6.60;;;;;;;17.62;83.40;96089.75;5044295;28;20715;-65
2021/06/04 06:18:58;;;;;;;4.40;4.00;;;;;;;17.71;82.41;96095.66;5043167;28;20230;-63
2021/06/04 06:21:27;;;;;;;5.73;5.43;;;;;;;17.87;81.96;96087.09;5038334;28;20223;-65
2021/06/04 06:23:54;;;;;;;4.47;4.27;;;;;;;17.94;81.78;96092.41;5038467;28;20233;-64
2021/06/04 06:26:28;;;;;;;6.57;4.83;;;;;;;18.04;81.35;96090.03;5035485;28;20273;-65
2021/06/04 06:28:57;;;;;;;5.17;4.97;;;;;;;18.10;80.85;96088.31;5038458;28;20254;-65
2021/06/04 06:31:27;;;;;;;4.27;4.07;;;;;;;18.12;81.33;96094.28;5032522;28;20669;-64
2021/06/04 06:33:57;;;;;;;3.93;3.63;;;;;;;18.25;82.06;96093.31;5023330;28;20458;-64
2021/06/04 06:36:27;;;;;;;4.97;4.57;;;;;;;18.40;82.31;96091.94;5024288;28;20258;-64
2021/06/04 06:38:56;;;;;;;4.73;4.43;;;;;;;18.59;81.45;96103.44;5023591;28;20669;-64
2021/06/04 06:41:25;;;;;;;4.80;4.60;;;;;;;18.80;81.22;96104.88;5057581;28;20258;-65
2021/06/04 06:43:53;;;;;;;4.97;4.77;;;;;;;18.95;80.68;96107.97;5025972;28;20314;-63
2021/06/04 06:46:23;;;;;;;4.67;4.37;;;;;;;19.11;80.46;96109.22;5039440;28;20700;-64
2021/06/04 06:48:51;;;;;;;5.13;4.93;;;;;;;19.23;80.00;96111.94;5026300;28;20285;-65
2021/06/04 06:51:19;;;;;;;5.53;5.23;;;;;;;19.35;78.77;96115.47;5026936;28;20333;-65
2021/06/04 06:53:47;;;;;;;3.53;3.33;;;;;;;19.53;78.86;96110.06;5035116;28;20701;-66
2021/06/04 06:56:17;;;;;;;4.63;4.33;;;;;;;19.74;78.44;96107.91;5041237;28;20219;-65
2021/06/04 06:58:45;;;;;;;4.60;4.27;;;;;;;19.88;78.39;96112.03;5033310;28;20311;-65
2021/06/04 07:01:13;;;;;;;4.20;4.00;;;;;;;20.03;78.41;96107.03;5032138;28;20227;-65
2021/06/04 07:03:42;;;;;;;3.63;3.43;;;;;;;20.16;77.67;96101.44;5023405;28;20306;-65
2021/06/04 07:06:12;;;;;;;4.03;3.73;;;;;;;20.30;77.66;96111.91;5027846;28;20831;-66
2021/06/04 07:08:41;;;;;;;3.37;3.20;;;;;;;20.45;77.12;96109.59;5029564;28;20250;-65
2021/06/04 07:11:09;;;;;;;4.17;3.97;;;;;;;20.58;75.45;96109.38;5040260;28;20743;-65
2021/06/04 07:13:36;;;;;;;3.40;3.07;;;;;;;20.71;75.14;96109.09;5033296;28;20460;-65
2021/06/04 07:16:07;;;;;;;3.93;3.70;;;;;;;20.79;74.64;96109.78;5037349;28;20305;-65
2021/06/04 07:18:37;;;;;;;4.47;4.07;;;;;;;20.81;73.14;96110.38;5032254;28;20233;-65
2021/06/04 07:21:06;;;;;;;3.70;3.50;;;;;;;20.59;72.88;96112.88;5035713;28;20243;-64
2021/06/04 07:23:33;;;;;;;3.13;2.93;;;;;;;20.87;72.56;96112.13;5034421;28;20250;-65
2021/06/04 07:26:03;;;;;;;5.10;3.60;;;;;;;20.89;72.00;96112.69;5039851;28;20223;-65
2021/06/04 07:28:32;;;;;;;5.83;3.77;;;;;;;21.11;69.57;96113.66;5041667;28;20230;-65
2021/06/04 07:31:03;;;;;;;3.57;3.37;;;;;;;21.24;70.71;96112.56;5039967;28;20288;-65
2021/06/04 07:33:33;;;;;;;2.70;2.50;;;;;;;21.40;71.14;96119.09;5034379;28;20314;-65
2021/06/04 07:36:05;;;;;;;5.17;4.40;;;;;;;21.49;70.40;96114.94;5036925;28;20230;-65
2021/06/04 07:38:32;;;;;;;4.53;4.33;;;;;;;21.14;71.04;96115.88;5036421;28;20303;-66
2021/06/04 07:41:01;;;;;;;5.63;3.57;;;;;;;21.20;69.44;96125.63;5032148;28;20255;-65
2021/06/04 07:43:32;;;;;;;3.57;3.33;;;;;;;21.17;70.23;96123.44;5042595;28;20238;-65
2021/06/04 07:45:59;;;;;;;5.77;2.93;;;;;;;21.51;70.75;96120.88;5036340;28;20507;-66
2021/06/04 07:48:26;;;;;;;2.40;2.20;;;;;;;21.47;69.65;96122.41;5041811;28;20229;-66
2021/06/04 07:50:56;;;;;;;3.33;3.10;;;;;;;21.75;68.92;96124.25;5026422;28;20224;-65
2021/06/04 07:53:27;;;;;;;5.40;4.87;;;;;;;21.98;68.20;96123.31;5033052;28;20938;-65
2021/06/04 07:55:55;;;;;;;3.47;2.77;;;;;;;22.14;69.90;96122.53;5027653;28;20243;-66
2021/06/04 07:58:23;;;;;;;4.40;4.00;;;;;;;22.32;67.67;96124.94;5027193;28;20635;-65
2021/06/04 08:00:51;;;;;;;3.33;3.00;;;;;;;22.22;67.07;96119.41;5028971;28;20225;-65
2021/06/04 08:03:23;;;;;;;3.50;3.30;;;;;;;22.56;67.07;96116.66;5035536;28;20238;-65
2021/06/04 08:05:50;;;;;;;5.07;4.70;;;;;;;22.74;66.51;96111.00;5045525;28;20250;-65
2021/06/04 08:08:19;;;;;;;6.53;3.83;;;;;;;22.71;65.65;96127.63;5037704;28;20262;-64
2021/06/04 08:10:46;;;;;;;3.60;3.40;;;;;;;22.93;66.22;96123.09;5036834;28;20302;-65
2021/06/04 08:13:15;;;;;;;3.90;3.63;;;;;;;23.15;65.17;96123.13;5035288;28;20497;-64
2021/06/04 08:15:46;;;;;;;3.20;2.90;;;;;;;23.33;65.36;96116.59;5034515;28;20600;-65
2021/06/04 08:18:15;;;;;;;3.93;3.73;;;;;;;23.09;64.73;96128.69;5032403;28;20318;-65
2021/06/04 08:20:43;;;;;;;4.30;3.77;;;;;;;23.22;65.53;96123.72;5034565;28;20736;-65
2021/06/04 08:23:15;;;;;;;6.07;3.67;;;;;;;23.00;64.78;96114.84;5029601;28;20250;-65
2021/06/04 08:25:45;;;;;;;4.13;3.93;;;;;;;23.16;64.86;96113.16;5031602;28;20449;-66
2021/06/04 08:28:13;;;;;;;3.20;3.00;;;;;;;23.28;64.12;96117.31;5037973;28;20223;-66
2021/06/04 08:30:41;;;;;;;4.13;3.93;;;;;;;23.64;64.05;96119.59;5042998;28;20484;-66
2021/06/04 08:33:08;;;;;;;4.53;4.10;;;;;;;23.24;63.76;96113.53;5041486;28;20223;-66
2021/06/04 08:35:38;;;;;;;4.80;3.40;;;;;;;23.36;65.66;96108.00;5026694;28;20322;-66
2021/06/04 08:38:05;;;;;;;3.87;3.67;;;;;;;23.72;65.62;96109.19;5039707;28;20302;-66
2021/06/04 08:40:36;;;;;;;5.25;4.85;;;;;;;24.04;64.36;96113.75;5037712;28;20306;-66
2021/06/04 08:43:16;;;;;;;3.30;3.17;;;;;;;24.33;62.40;96111.59;5006265;28;20215;-65
2021/06/04 08:45:52;;;;;;;4.25;3.95;;;;;;;23.88;59.85;96112.84;5042710;28;20322;-66
2021/06/04 08:48:37;;;;;;;4.43;4.18;;;;;;;24.21;60.55;96113.59;5034683;28;20227;-65
2021/06/04 08:51:15;;;;;;;4.45;4.15;;;;;;;24.01;61.62;96115.09;5031890;28;20241;-65
2021/06/04 08:53:51;;;;;;;4.03;3.78;;;;;;;24.34;58.95;96113.22;5032863;28;20253;-65
2021/06/04 08:56:23;;;;;;;3.80;3.60;;;;;;;24.54;58.73;96113.34;5044472;28;20242;-66
2021/06/04 08:58:58;;;;;;;3.75;3.50;;;;;;;24.70;58.75;96108.03;5043780;28;20246;-66
2021/06/04 09:01:33;;;;;;;3.53;3.40;;;;;;;25.00;60.34;96107.34;5040302;28;20246;-64
2021/06/04 09:04:05;;;;;;;4.28;3.97;;;;;;;24.97;59.38;96106.00;5034364;28;20223;-66
2021/06/04 09:06:39;;;;;;;9.27;6.03;;;;;;;25.21;57.85;96104.47;5036585;28;20366;-66
2021/06/04 09:09:15;;;;;;;5.55;5.00;;;;;;;24.97;57.57;96116.81;5029675;28;20314;-66
2021/06/04 09:11:43;;;;;;;4.55;4.35;;;;;;;24.80;57.31;96113.47;5035028;28;20254;-65
2021/06/04 09:14:11;;;;;;;4.32;3.75;;;;;;;24.76;59.86;96117.75;5035116;28;20265;-65
2021/06/04 09:16:51;;;;;;;4.13;3.65;;;;;;;24.98;56.04;96109.50;5035349;28;20270;-66
2021/06/04 09:19:25;;;;;;;2.97;2.88;;;;;;;25.56;57.71;96108.34;5034565;28;20301;-65
2021/06/04 09:21:55;;;;;;;3.97;3.67;;;;;;;25.99;55.18;96096.25;5033226;28;20241;-65
2021/06/04 09:24:27;;;;;;;4.32;4.13;;;;;;;26.04;57.62;96103.56;5032564;28;20448;-66
2021/06/04 09:26:55;;;;;;;5.65;3.47;;;;;;;26.10;52.27;96113.31;5042335;28;20250;-65
2021/06/04 09:29:25;;;;;;;4.40;3.67;;;;;;;26.00;52.83;96107.91;5045494;28;20568;-66
2021/06/04 09:31:55;;;;;;;3.45;3.25;;;;;;;26.18;54.04;96110.06;5036256;28;20693;-66
2021/06/04 09:34:31;;;;;;;2.92;2.72;;;;;;;26.04;53.91;96114.38;5033904;28;20227;-66
2021/06/04 09:37:03;;;;;;;3.45;2.88;;;;;;;26.40;55.25;96111.69;5036509;28;20318;-64
2021/06/04 09:39:36;;;;;;;3.85;3.65;;;;;;;26.66;54.78;96110.53;5030433;28;20637;-67
2021/06/04 09:42:13;;;;;;;3.90;3.70;;;;;;;26.99;51.92;96108.28;5029961;28;20257;-66
2021/06/04 09:44:53;;;;;;;4.90;3.60;;;;;;;26.82;52.51;96104.00;5036550;28;20246;-65
2021/06/04 09:47:29;;;;;;;2.38;2.28;;;;;;;26.53;53.07;96100.31;5039462;28;20306;-65
2021/06/04 09:49:57;;;;;;;2.90;2.80;;;;;;;26.59;51.38;96097.28;5026888;28;20222;-65
2021/06/04 09:52:32;;;;;;;3.13;2.90;;;;;;;26.78;51.26;96096.69;5026675;28;20227;-66
2021/06/04 09:55:25;;;;;;;3.47;3.25;;;;;;;27.36;52.10;96089.72;5032669;28;20872;-66
2021/06/04 09:58:18;;;;;;;2.78;2.67;;;;;;;27.99;48.21;96086.34;5016095;28;20311;-66
2021/06/04 10:00:48;;;;;;;3.03;2.80;;;;;;;28.51;48.55;96080.16;5031371;28;20259;-65
2021/06/04 10:03:26;;;;;;;21.00;2.97;;;;;;;28.47;46.93;96081.84;5043152;28;20257;-65
2021/06/04 10:06:25;;;;;;;3.55;3.35;;;;;;;28.44;49.02;96082.41;5040575;28;20214;-65
2021/06/04 10:08:56;;;;;;;5.28;3.90;;;;;;;28.81;47.99;96079.03;5027020;28;20353;-66
2021/06/04 10:11:26;;;;;;;4.03;3.10;;;;;;;27.85;49.55;96072.59;5033147;28;20778;-67
2021/06/04 10:13:59;;;;;;;3.67;3.38;;;;;;;28.66;47.33;96076.47;5029949;28;20242;-65
2021/06/04 10:16:47;;;;;;;2.67;2.58;;;;;;;29.51;48.72;96070.28;5034721;28;20230;-65
2021/06/04 10:19:22;;;;;;;2.70;2.50;;;;;;;30.46;47.62;96065.50;5033262;28;20219;-66
2021/06/04 10:21:51;;;;;;;3.55;2.15;;;;;;;31.03;42.85;96060.59;5038174;28;20294;-67
2021/06/04 10:24:32;;;;;;;3.15;3.05;;;;;;;31.23;43.78;96049.28;5029819;28;20836;-66
2021/06/04 10:27:03;;;;;;;3.78;3.58;;;;;;;31.69;44.20;96056.44;5025220;28;20250;-65
2021/06/04 10:29:31;;;;;;;3.28;3.08;;;;;;;32.05;42.82;96044.69;5033077;28;20307;-66
2021/06/04 10:32:03;;;;;;;1.90;1.85;;;;;;;32.09;41.19;96048.38;5034783;28;20681;-66
2021/06/04 10:34:57;;;;;;;2.88;2.78;;;;;;;32.37;41.31;96049.88;5031955;28;20231;-67
2021/06/04 10:37:32;;;;;;;3.17;3.08;;;;;;;32.36;42.91;96052.91;5030338;28;20313;-66
2021/06/04 10:40:09;;;;;;;2.47;2.38;;;;;;;32.76;42.16;96048.28;5031733;28;20644;-65
2021/06/04 10:42:47;;;;;;;2.88;2.78;;;;;;;33.00;41.00;96040.50;5036939;28;20254;-67
2021/06/04 10:45:19;;;;;;;2.53;2.25;;;;;;;33.25;40.35;96040.88;5038464;28;20250;-67
2021/06/04 10:48:04;;;;;;;2.65;2.55;;;;;;;32.98;39.24;96037.28;5034514;28;20751;-66
2021/06/04 10:50:36;;;;;;;3.17;3.00;;;;;;;32.95;38.36;96037.91;5035147;28;20223;-67
2021/06/04 10:53:11;;;;;;;2.15;2.05;;;;;;;33.19;41.69;96037.47;5035640;28;20322;-65
2021/06/04 10:55:47;;;;;;;3.90;3.55;;;;;;;32.62;40.85;96039.38;5041163;28;20663;-67
2021/06/04 10:58:20;;;;;;;2.90;2.80;;;;;;;33.03;39.09;96048.09;5045286;28;20305;-66
2021/06/04 11:00:53;;;;;;;3.78;2.90;;;;;;;33.09;39.00;96038.59;5041128;28;20326;-66
2021/06/04 11:03:28;;;;;;;2.20;2.13;;;;;;;33.31;40.93;96034.94;5042944;28;20338;-67
2021/06/04 11:06:02;;;;;;;2.88;2.67;;;;;;;33.56;40.23;96036.13;5041152;28;20253;-66
2021/06/04 11:08:51;;;;;;;2.53;2.42;;;;;;;33.66;40.99;96027.59;5040661;28;20247;-67
2021/06/04 11:11:34;;;;;;;2.15;2.08;;;;;;;33.32;37.09;96025.59;5037357;28;20220;-67
2021/06/04 11:14:18;;;;;;;3.08;2.97;;;;;;;31.78;40.64;96021.84;5042409;28;20227;-65
2021/06/04 11:16:51;;;;;;;3.72;2.42;;;;;;;31.63;41.15;96014.00;5036713;28;20300;-67
2021/06/04 11:19:30;;;;;;;5.50;3.03;;;;;;;31.84;40.08;96017.91;5040693;28;20288;-66
2021/06/04 11:22:02;;;;;;;3.13;3.03;;;;;;;32.01;39.54;96003.56;5040791;28;20310;-67
2021/06/04 11:24:40;;;;;;;3.50;2.40;;;;;;;31.87;39.12;96003.63;5039368;28;20222;-66
2021/06/04 11:27:18;;;;;;;4.15;2.72;;;;;;;31.90;40.55;96002.97;5034537;28;20237;-66
2021/06/04 11:29:46;;;;;;;2.85;2.65;;;;;;;32.17;40.09;95996.56;5037514;28;20218;-67
2021/06/04 11:32:18;;;;;;;2.97;2.67;;;;;;;32.51;39.82;95995.94;5039062;28;20307;-67
2021/06/04 11:34:53;;;;;;;3.05;2.85;;;;;;;32.69;38.66;95998.75;5039743;28;20222;-66
2021/06/04 11:37:26;;;;;;;15.07;3.45;;;;;;;32.68;39.23;96005.31;5037010;28;20775;-67
2021/06/04 11:39:58;;;;;;;2.50;2.38;;;;;;;32.62;40.12;96012.84;5043039;28;20311;-67
2021/06/04 11:42:34;;;;;;;2.55;2.45;;;;;;;32.73;40.36;96018.84;5038883;28;20220;-66
2021/06/04 11:45:05;;;;;;;1.70;1.60;;;;;;;32.60;38.93;96011.56;5038029;28;20229;-67
2021/06/04 11:47:37;;;;;;;3.17;2.15;;;;;;;32.53;41.20;96003.81;5027801;28;20235;-66
2021/06/04 11:50:27;;;;;;;2.13;2.03;;;;;;;32.53;42.32;96010.09;5040924;28;20247;-67
2021/06/04 11:53:14;;;;;;;2.67;2.47;;;;;;;32.44;39.42;96000.25;5027791;28;20656;-67
2021/06/04 11:56:02;;;;;;;3.08;2.70;;;;;;;32.05;42.24;96009.19;5043935;28;20258;-66